DW8090 Weather Reports


Display with metric or nautical units.
time (UTC)temp
F
wind
direction
speed
MPH
gust
MPH
rain 1hr
in
rain 24hr
in
rain mn
in
humidity
%
barometer
mb
20210306021023 22 225 0.0 0.0 0.00 0.02 0.00 85 1035.5
20210306020136 22 225 0.0 0.0 0.00 0.02 0.00 85 1035.7
20210306011019 23 225 0.0 0.0 0.00 0.02 0.00 83 1035.7
20210306010024 23 225 0.0 1.0 0.00 0.02 0.00 82 1035.7
20210306004020 23 225 0.0 0.0 0.00 0.02 0.00 82 1035.7
20210306003246 23 225 0.0 1.0 0.00 0.02 0.00 82 1035.7
20210306001022 23 225 0.0 0.0 0.00 0.02 0.00 81 1035.8
20210306000047 24 225 0.0 0.0 0.00 0.02 0.00 81 1035.8
20210305234025 24 225 0.0 0.0 0.00 0.02 0.00 81 1035.6
20210305231025 24 225 0.0 0.0 0.00 0.04 0.00 80 1035.3
20210305230025 24 270 0.0 1.0 0.00 0.04 0.00 80 1035.3
20210305224019 25 270 0.0 1.0 0.00 0.04 0.04 78 1035.5
20210305220035 25 135 0.0 0.0 0.00 0.04 0.04 76 1035.0
20210305211032 26 225 0.0 0.0 0.00 0.04 0.04 74 1034.8
20210305210026 26 158 0.0 0.0 0.00 0.04 0.04 73 1034.6
20210305203026 26 158 0.0 0.0 0.00 0.04 0.04 72 1034.3
20210305201024 27 180 0.0 1.0 0.00 0.05 0.04 71 1034.0
20210305200343 27 225 0.0 1.0 0.00 0.05 0.04 70 1034.0
20210305191032 29 135 0.0 1.0 0.00 0.05 0.04 72 1033.4
20210305190027 29 270 0.0 1.0 0.00 0.05 0.04 71 1033.3
20210305184042 30 237 1.0 2.0 0.00 0.05 0.04 68 1033.2
20210305183023 30 225 0.0 1.0 0.00 0.05 0.04 67 1033.1
20210305181024 31 229 1.0 2.0 0.00 0.05 0.04 62 1032.7
20210305180100 32 187 0.0 1.0 0.00 0.05 0.04 57 1032.6
20210305174020 34 135 0.0 0.0 0.00 0.05 0.04 45 1032.2
20210305171031 36 316 0.0 1.0 0.00 0.05 0.04 39 1031.8
20210305170130 37 27 0.0 6.0 0.00 0.05 0.04 37 1031.6
20210305163729 38 270 1.0 3.0 0.00 0.05 0.04 48 1031.2
20210305161032 38 270 0.0 1.0 0.00 0.05 0.04 51 1031.0
20210305160031 38 63 1.0 3.0 0.00 0.05 0.04 49 1030.7
20210305154025 39 340 3.0 7.0 0.00 0.06 0.04 46 1030.7
20210305153139 40 113 4.0 8.0 0.00 0.06 0.04 44 1030.5
20210305151024 41 45 3.0 8.0 0.00 0.06 0.04 41 1030.4
20210305150047 41 33 1.0 7.0 0.00 0.06 0.04 42 1030.3
20210305144034 42 331 4.0 8.0 0.00 0.06 0.04 40 1030.2
20210305143034 43 182 3.0 8.0 0.00 0.07 0.04 44 1030.4
20210305140242 42 326 1.0 6.0 0.00 0.09 0.04 41 1030.0
20210305133021 40 316 2.0 7.0 0.00 0.09 0.04 49 1030.0
20210305131027 40 45 2.0 5.0 0.00 0.11 0.04 53 1029.8
20210305130221 41 28 1.0 9.0 0.00 0.11 0.04 45 1029.7
20210305124023 41 45 0.0 3.0 0.00 0.11 0.04 45 1029.4
20210305123338 41 270 2.0 6.0 0.00 0.11 0.04 49 1029.2
20210305121029 41 270 3.0 8.0 0.00 0.11 0.04 46 1029.1
20210305114025 38 27 1.0 10.0 0.00 0.12 0.04 56 1029.0
20210305113056 38 315 2.0 8.0 0.00 0.12 0.04 56 1029.0
20210305111027 38 268 3.0 8.0 0.00 0.12 0.04 55 1028.8
20210305110047 38 135 5.0 8.0 0.00 0.12 0.04 56 1028.6
20210305104027 38 296 3.0 12.0 0.00 0.12 0.04 56 1028.4
20210305103024 38 269 4.0 13.0 0.00 0.12 0.04 57 1028.4
20210305101044 38 270 3.0 8.0 0.00 0.12 0.04 58 1027.9
20210305100117 37 270 5.0 10.0 0.00 0.12 0.04 54 1028.0
20210305094022 38 261 3.0 8.0 0.00 0.12 0.04 61 1027.9
20210305090026 37 315 4.0 10.0 0.00 0.13 0.04 69 1027.3
20210305084029 36 20 5.0 7.0 0.00 0.13 0.04 73 1027.1
20210305081022 36 296 3.0 10.0 0.00 0.13 0.04 80 1026.8
20210305080044 36 7 2.0 8.0 0.01 0.13 0.04 85 1026.6
20210305074032 36 282 2.0 6.0 0.01 0.13 0.04 88 1026.2
20210305071023 35 353 1.0 3.0 0.01 0.13 0.04 91 1025.7
20210305070110 35 284 1.0 7.0 0.01 0.12 0.02 92 1025.4
20210305064019 35 45 2.0 7.0 0.01 0.12 0.02 93 1025.2
20210305063129 35 172 1.0 6.0 0.01 0.12 0.02 93 1024.9
20210305061024 35 311 2.0 6.0 0.01 0.12 0.02 94 1024.5
20210305060030 35 307 0.0 6.0 0.00 0.11 0.01 94 1024.2
20210305053023 35 45 2.0 7.0 0.00 0.11 0.01 92 1024.2
20210305051021 36 225 1.0 6.0 0.00 0.11 0.01 92 1023.7
20210305050020 36 263 1.0 3.0 0.00 0.11 0.01 92 1023.7
20210305043111 36 21 1.0 3.0 0.00 0.11 0.01 92 1023.3
20210305041029 36 194 1.0 3.0 0.00 0.11 0.01 91 1023.0
20210305040255 36 302 1.0 3.0 0.00 0.11 0.01 91 1022.9
20210305033033 36 236 1.0 3.0 0.00 0.11 0.01 91 1022.6
20210305030050 36 299 0.0 3.0 0.00 0.11 0.01 91 1022.3
20210305024020 36 273 0.0 3.0 0.00 0.11 0.01 91 1022.3
20210305023022 36 308 0.0 2.0 0.00 0.11 0.01 91 1022.1